createdAt,value
2018-11-14T00:00:25.463Z,88.80
2018-11-14T00:02:53.967Z,88.70
2018-11-14T00:05:22.453Z,88.80
2018-11-14T00:07:50.926Z,88.90
2018-11-14T00:10:19.883Z,88.80
2018-11-14T00:12:47.883Z,88.80
2018-11-14T00:15:21.528Z,88.70
2018-11-14T00:17:50.625Z,88.80
2018-11-14T00:20:19.108Z,88.80
2018-11-14T00:22:48.716Z,88.80
2018-11-14T00:25:17.207Z,88.80
2018-11-14T00:27:45.726Z,88.80
2018-11-14T00:30:16.845Z,88.90
2018-11-14T00:32:45.319Z,89.00
2018-11-14T00:35:14.052Z,89.10
2018-11-14T00:37:43.047Z,88.90
2018-11-14T00:40:12.656Z,88.30
2018-11-14T00:42:41.957Z,89.80
2018-11-14T00:45:12.518Z,89.80
2018-11-14T00:47:41.483Z,89.10
2018-11-14T00:50:10.989Z,89.10
2018-11-14T00:52:39.450Z,89.10
2018-11-14T00:55:10.304Z,89.20
2018-11-14T00:57:38.751Z,89.20
2018-11-14T01:00:11.579Z,89.30
2018-11-14T01:02:40.335Z,89.50
2018-11-14T01:05:10.374Z,89.60
2018-11-14T01:07:39.018Z,89.80
2018-11-14T01:10:09.418Z,89.60
2018-11-14T01:12:38.050Z,89.60
2018-11-14T01:15:09.012Z,90.00
2018-11-14T01:17:37.774Z,90.00
2018-11-14T01:20:07.366Z,90.00
2018-11-14T01:22:35.804Z,90.20
2018-11-14T01:25:04.259Z,90.30
2018-11-14T01:27:32.733Z,90.40
2018-11-14T01:30:01.150Z,90.40
2018-11-14T01:32:29.578Z,90.50
2018-11-14T01:34:57.979Z,90.70
2018-11-14T01:37:26.375Z,90.70
2018-11-14T01:39:54.992Z,90.70
2018-11-14T01:42:23.393Z,90.70
2018-11-14T01:45:05.681Z,90.70
2018-11-14T01:47:34.126Z,90.70
2018-11-14T01:50:03.160Z,90.80
2018-11-14T01:52:31.619Z,90.80
2018-11-14T01:55:00.065Z,90.80
2018-11-14T01:57:28.467Z,90.80
2018-11-14T01:59:56.883Z,90.80
2018-11-14T02:02:25.281Z,90.90
2018-11-14T02:04:53.688Z,91.00
2018-11-14T02:07:22.416Z,90.90
2018-11-14T02:09:51.361Z,91.00
2018-11-14T02:12:19.791Z,91.00
2018-11-14T02:14:48.226Z,91.10
2018-11-14T02:17:16.669Z,91.20
2018-11-14T02:19:45.064Z,91.20
2018-11-14T02:22:13.478Z,91.20
2018-11-14T02:24:41.901Z,91.20
2018-11-14T02:27:10.303Z,91.30
2018-11-14T02:29:38.723Z,91.30
2018-11-14T02:32:07.305Z,91.20
2018-11-14T02:34:35.756Z,91.40
2018-11-14T02:37:04.201Z,91.30
2018-11-14T02:39:32.883Z,91.30
2018-11-14T02:42:01.748Z,91.30
2018-11-14T02:44:30.221Z,91.40
2018-11-14T02:46:58.678Z,91.50
2018-11-14T02:49:27.126Z,91.80
2018-11-14T02:51:55.609Z,91.50
2018-11-14T02:54:24.014Z,91.60
2018-11-14T02:56:52.441Z,91.50
2018-11-14T02:59:20.877Z,91.50
2018-11-14T03:01:49.333Z,91.50
2018-11-14T03:04:17.750Z,91.30
2018-11-14T03:06:46.189Z,91.40
2018-11-14T03:09:14.653Z,91.30
2018-11-14T03:11:43.122Z,91.40
2018-11-14T03:14:11.561Z,91.30
2018-11-14T03:16:40.032Z,91.50
2018-11-14T03:19:08.490Z,91.50
2018-11-14T03:21:36.924Z,91.70
2018-11-14T03:24:05.783Z,91.60
2018-11-14T03:26:34.251Z,91.80
2018-11-14T03:29:02.706Z,91.80
2018-11-14T03:31:31.146Z,91.90
2018-11-14T03:33:59.559Z,91.90
2018-11-14T03:36:28.078Z,92.00
2018-11-14T03:38:56.557Z,92.00
2018-11-14T03:41:25.010Z,92.00
2018-11-14T03:43:53.456Z,91.90
2018-11-14T03:46:21.934Z,91.90
2018-11-14T03:48:52.425Z,91.90
2018-11-14T03:51:20.892Z,91.90
2018-11-14T03:53:49.354Z,91.90
2018-11-14T03:56:17.855Z,91.90
2018-11-14T03:58:46.331Z,92.40
2018-11-14T04:01:14.752Z,92.00
2018-11-14T04:03:43.217Z,92.10
2018-11-14T04:06:11.631Z,92.10
2018-11-14T04:08:40.032Z,92.10
2018-11-14T04:11:08.441Z,92.00
2018-11-14T04:13:36.897Z,92.00
2018-11-14T04:16:05.796Z,92.00
2018-11-14T04:18:34.236Z,92.10
2018-11-14T04:21:02.687Z,92.00
2018-11-14T04:23:31.101Z,92.10
2018-11-14T04:25:59.504Z,92.20
2018-11-14T04:28:27.914Z,92.20
2018-11-14T04:30:56.335Z,92.20
2018-11-14T04:33:24.728Z,92.20
2018-11-14T04:35:53.134Z,92.20
2018-11-14T04:38:21.575Z,92.20
2018-11-14T04:40:49.982Z,92.30
2018-11-14T04:43:18.414Z,92.20
2018-11-14T04:45:46.818Z,92.20
2018-11-14T04:48:15.313Z,92.10
2018-11-14T04:50:43.658Z,92.10
2018-11-14T04:53:12.091Z,92.10
2018-11-14T04:55:40.546Z,92.20
2018-11-14T04:58:08.978Z,92.20
2018-11-14T05:00:37.384Z,92.30
2018-11-14T05:03:06.329Z,92.20
2018-11-14T05:05:34.757Z,92.50
2018-11-14T05:08:03.231Z,92.40
2018-11-14T05:10:31.649Z,92.40
2018-11-14T05:13:00.132Z,92.40
2018-11-14T05:15:28.543Z,92.40
2018-11-14T05:17:57.033Z,92.40
2018-11-14T05:20:25.540Z,92.50
2018-11-14T05:22:54.005Z,92.50
2018-11-14T05:25:22.450Z,92.40
2018-11-14T05:27:50.875Z,92.50
2018-11-14T05:30:21.717Z,92.50
2018-11-14T05:32:50.648Z,92.60
2018-11-14T05:35:19.312Z,92.60
2018-11-14T05:37:48.338Z,92.50
2018-11-14T05:40:18.032Z,92.40
2018-11-14T05:42:47.296Z,92.40
2018-11-14T05:45:17.467Z,92.40
2018-11-14T05:47:46.016Z,92.50
2018-11-14T05:50:15.926Z,92.40
2018-11-14T05:52:44.383Z,92.60
2018-11-14T05:55:13.381Z,92.40
2018-11-14T05:57:41.831Z,92.50
2018-11-14T06:00:15.046Z,92.40
2018-11-14T06:02:44.069Z,92.40
2018-11-14T06:05:12.569Z,92.50
2018-11-14T06:07:41.041Z,92.60
2018-11-14T06:10:11.079Z,92.50
2018-11-14T06:12:39.953Z,92.60
2018-11-14T06:15:11.115Z,92.90
2018-11-14T06:17:39.882Z,92.50
2018-11-14T06:20:10.606Z,92.40
2018-11-14T06:22:39.020Z,92.50
2018-11-14T06:25:15.717Z,92.50
2018-11-14T06:27:44.639Z,92.60
2018-11-14T06:30:13.102Z,92.50
2018-11-14T06:32:41.593Z,92.60
2018-11-14T06:35:10.011Z,92.50
2018-11-14T06:37:38.423Z,92.40
2018-11-14T06:40:08.674Z,92.50
2018-11-14T06:42:37.113Z,92.50
2018-11-14T06:45:07.161Z,92.40
2018-11-14T06:47:35.594Z,92.20
2018-11-14T06:50:04.477Z,92.40
2018-11-14T06:52:32.717Z,92.40
2018-11-14T06:55:01.120Z,92.40
2018-11-14T06:57:29.604Z,92.60
2018-11-14T06:59:57.990Z,92.50
2018-11-14T07:02:27.322Z,92.50
2018-11-14T07:04:54.974Z,92.50
2018-11-14T07:07:23.340Z,92.50
2018-11-14T07:09:52.104Z,92.60
2018-11-14T07:12:20.530Z,92.60
2018-11-14T07:14:48.979Z,92.60
2018-11-14T07:17:17.727Z,92.50
2018-11-14T07:19:46.244Z,92.50
2018-11-14T07:22:14.691Z,92.50
2018-11-14T07:24:43.170Z,92.40
2018-11-14T07:27:11.583Z,92.50
2018-11-14T07:29:40.012Z,92.40
2018-11-14T07:32:08.446Z,92.40
2018-11-14T07:34:36.917Z,92.40
2018-11-14T07:37:05.339Z,92.30
2018-11-14T07:39:33.743Z,92.50
2018-11-14T07:42:02.164Z,92.10
2018-11-14T07:44:30.612Z,92.10
2018-11-14T07:46:59.045Z,92.00
2018-11-14T07:49:27.457Z,92.00
2018-11-14T07:51:55.893Z,91.90
2018-11-14T07:54:24.358Z,91.80
2018-11-14T07:56:52.721Z,91.70
2018-11-14T07:59:21.131Z,91.70
2018-11-14T08:01:49.548Z,91.70
2018-11-14T08:04:17.994Z,91.60
2018-11-14T08:06:46.539Z,91.50
2018-11-14T08:09:14.962Z,91.50
2018-11-14T08:11:43.426Z,91.60
2018-11-14T08:14:11.840Z,91.50
2018-11-14T08:16:40.283Z,91.30
2018-11-14T08:19:08.897Z,91.30
2018-11-14T08:21:37.337Z,91.40
2018-11-14T08:24:05.752Z,91.20
2018-11-14T08:26:34.166Z,91.20
2018-11-14T08:29:02.624Z,91.20
2018-11-14T08:31:31.054Z,91.00
2018-11-14T08:33:59.472Z,90.90
2018-11-14T08:36:27.882Z,91.00
2018-11-14T08:38:56.306Z,91.00
2018-11-14T08:41:24.707Z,90.90
2018-11-14T08:43:53.150Z,90.70
2018-11-14T08:46:21.581Z,90.60
2018-11-14T08:48:49.996Z,90.50
2018-11-14T08:51:18.425Z,90.10
2018-11-14T08:53:46.839Z,90.40
2018-11-14T08:56:15.307Z,90.10
2018-11-14T08:58:43.715Z,90.20
2018-11-14T09:01:12.355Z,89.80
2018-11-14T09:03:40.796Z,89.20
2018-11-14T09:06:09.254Z,89.60
2018-11-14T09:08:38.642Z,89.40
2018-11-14T09:11:07.331Z,88.40
2018-11-14T09:13:35.719Z,88.50
2018-11-14T09:16:04.244Z,88.50
2018-11-14T09:18:32.798Z,88.10
2018-11-14T09:21:01.497Z,87.80
2018-11-14T09:23:29.988Z,87.50
2018-11-14T09:25:58.493Z,87.30
2018-11-14T09:28:26.982Z,86.80
2018-11-14T09:30:55.464Z,86.50
2018-11-14T09:33:23.863Z,86.00
2018-11-14T09:35:52.283Z,85.40
2018-11-14T09:38:20.795Z,85.30
2018-11-14T09:40:49.350Z,85.20
2018-11-14T09:43:18.085Z,84.60
2018-11-14T09:45:46.498Z,83.60
2018-11-14T09:48:14.927Z,83.20
2018-11-14T09:50:43.358Z,82.60
2018-11-14T09:53:11.822Z,82.20
2018-11-14T09:55:40.228Z,82.50
2018-11-14T09:58:08.698Z,81.30
2018-11-14T10:00:37.164Z,79.50
2018-11-14T10:03:08.158Z,75.70
2018-11-14T10:05:36.512Z,68.20
2018-11-14T10:08:05.042Z,61.10
2018-11-14T10:10:33.453Z,55.50
2018-11-14T10:13:01.888Z,51.20
2018-11-14T10:15:30.357Z,48.10
2018-11-14T10:17:58.935Z,46.80
2018-11-14T10:20:27.377Z,44.70
2018-11-14T10:22:55.819Z,43.80
2018-11-14T10:25:24.247Z,42.50
2018-11-14T10:27:53.714Z,42.10
2018-11-14T10:30:23.503Z,41.80
2018-11-14T10:32:52.450Z,41.00
2018-11-14T10:35:21.292Z,40.00
2018-11-14T10:37:49.860Z,39.10
2018-11-14T10:40:21.654Z,37.90
2018-11-14T10:42:56.720Z,37.70
2018-11-14T10:45:26.055Z,37.70
2018-11-14T10:47:54.536Z,36.80
2018-11-14T10:50:26.840Z,37.00
2018-11-14T10:52:55.275Z,36.50
2018-11-14T10:55:23.998Z,36.90
2018-11-14T10:57:52.944Z,36.90
2018-11-14T11:00:33.373Z,36.10
2018-11-14T11:03:07.561Z,35.60
2018-11-14T11:05:44.265Z,35.50
2018-11-14T11:08:19.154Z,34.60
2018-11-14T11:10:52.010Z,33.50
2018-11-14T11:13:25.645Z,34.20
2018-11-14T11:15:59.550Z,34.80
2018-11-14T11:18:29.755Z,35.00
2018-11-14T11:20:58.279Z,34.60
2018-11-14T11:23:26.775Z,34.50
2018-11-14T11:25:55.207Z,34.70
2018-11-14T11:28:23.658Z,33.90
2018-11-14T11:30:52.164Z,33.20
2018-11-14T11:33:20.557Z,32.20
2018-11-14T11:35:48.993Z,32.50
2018-11-14T11:38:17.476Z,32.60
2018-11-14T11:40:45.940Z,32.00
2018-11-14T11:43:14.371Z,34.00
2018-11-14T11:45:42.846Z,34.50
2018-11-14T11:48:11.320Z,34.80
2018-11-14T11:50:39.800Z,33.20
2018-11-14T11:53:08.233Z,32.00
2018-11-14T11:55:36.672Z,30.90
2018-11-14T11:58:05.438Z,30.70
2018-11-14T12:00:33.973Z,32.50
2018-11-14T12:03:02.303Z,31.90
2018-11-14T12:05:30.742Z,32.20
2018-11-14T12:07:59.144Z,32.40
2018-11-14T12:10:27.563Z,33.20
2018-11-14T12:12:56.061Z,32.80
2018-11-14T12:15:24.508Z,31.80
2018-11-14T12:17:53.006Z,33.30
2018-11-14T12:20:21.371Z,33.80
2018-11-14T12:22:49.805Z,33.70
2018-11-14T12:25:18.244Z,33.70
2018-11-14T12:27:46.658Z,34.00
2018-11-14T12:30:16.660Z,34.10
2018-11-14T12:32:45.097Z,34.70
2018-11-14T12:35:14.834Z,35.10
2018-11-14T12:37:43.606Z,35.70
2018-11-14T12:40:13.315Z,37.00
2018-11-14T12:42:42.567Z,38.00
2018-11-14T12:45:12.483Z,38.80
2018-11-14T12:47:40.971Z,39.70
2018-11-14T12:50:10.610Z,39.80
2018-11-14T12:52:39.149Z,38.30
2018-11-14T12:55:09.419Z,39.20
2018-11-14T12:57:37.866Z,38.70
2018-11-14T13:00:08.041Z,39.70
2018-11-14T13:02:36.434Z,39.60
2018-11-14T13:05:05.416Z,40.60
2018-11-14T13:07:33.832Z,39.20
2018-11-14T13:10:02.254Z,38.00
2018-11-14T13:12:30.728Z,36.80
2018-11-14T13:14:59.168Z,36.20
2018-11-14T13:17:27.564Z,36.10
2018-11-14T13:19:55.970Z,35.80
2018-11-14T13:22:24.360Z,36.40
2018-11-14T13:24:52.827Z,35.50
2018-11-14T13:27:21.323Z,35.90
2018-11-14T13:29:49.804Z,35.80
2018-11-14T13:32:18.532Z,34.70
2018-11-14T13:34:46.930Z,34.30
2018-11-14T13:37:15.382Z,35.10
2018-11-14T13:39:43.971Z,35.60
2018-11-14T13:42:12.367Z,34.70
2018-11-14T13:44:40.765Z,34.70
2018-11-14T13:47:09.189Z,34.80
2018-11-14T13:49:37.937Z,34.70
2018-11-14T13:52:06.079Z,35.40
2018-11-14T13:54:34.490Z,37.60
2018-11-14T13:57:03.016Z,40.70
2018-11-14T13:59:31.418Z,44.00
2018-11-14T14:01:59.840Z,46.40
2018-11-14T14:04:28.293Z,49.60
2018-11-14T14:06:56.747Z,50.90
2018-11-14T14:09:25.259Z,51.80
2018-11-14T14:11:53.665Z,53.20
2018-11-14T14:14:22.079Z,53.80
2018-11-14T14:16:50.492Z,55.50
2018-11-14T14:19:18.953Z,55.50
2018-11-14T14:21:47.423Z,56.60
2018-11-14T14:24:15.895Z,57.10
2018-11-14T14:26:44.374Z,57.20
2018-11-14T14:29:12.814Z,58.10
2018-11-14T14:31:41.272Z,58.60
2018-11-14T14:34:09.692Z,59.30
2018-11-14T14:36:38.099Z,59.50
2018-11-14T14:39:08.951Z,59.80
2018-11-14T14:41:37.415Z,60.00
2018-11-14T14:44:05.996Z,60.00
2018-11-14T14:46:34.515Z,60.50
2018-11-14T14:49:03.034Z,61.00
2018-11-14T14:51:31.635Z,60.60
2018-11-14T14:54:00.106Z,61.10
2018-11-14T14:56:28.761Z,60.60
2018-11-14T14:58:57.197Z,61.10
2018-11-14T15:01:25.658Z,61.20
2018-11-14T15:03:54.098Z,61.30
2018-11-14T15:06:22.568Z,61.90
2018-11-14T15:08:51.024Z,62.10
2018-11-14T15:11:19.531Z,62.60
2018-11-14T15:13:48.026Z,62.60
2018-11-14T15:16:17.393Z,63.20
2018-11-14T15:18:46.502Z,63.80
2018-11-14T15:21:15.124Z,64.40
2018-11-14T15:23:44.851Z,64.80
2018-11-14T15:26:13.750Z,65.10
2018-11-14T15:28:42.907Z,65.40
2018-11-14T15:31:11.756Z,66.10
2018-11-14T15:33:40.817Z,66.40
2018-11-14T15:36:09.687Z,66.70
2018-11-14T15:38:38.568Z,67.50
2018-11-14T15:41:07.701Z,67.80
2018-11-14T15:43:37.245Z,68.60
2018-11-14T15:46:06.532Z,68.80
2018-11-14T15:48:35.352Z,69.40
2018-11-14T15:51:03.939Z,69.30
2018-11-14T15:53:32.440Z,69.60
2018-11-14T15:56:01.351Z,69.90
2018-11-14T15:58:29.972Z,70.30
2018-11-14T16:00:58.499Z,70.60
2018-11-14T16:03:26.949Z,70.80
2018-11-14T16:05:55.535Z,71.10
2018-11-14T16:08:23.993Z,71.40
2018-11-14T16:10:52.519Z,71.50
2018-11-14T16:13:21.050Z,71.80
2018-11-14T16:15:49.525Z,72.00
2018-11-14T16:18:17.968Z,72.00
2018-11-14T16:20:46.447Z,72.30
2018-11-14T16:23:14.919Z,72.70
2018-11-14T16:25:43.407Z,72.80
2018-11-14T16:28:11.898Z,73.30
2018-11-14T16:30:40.342Z,73.90
2018-11-14T16:33:09.176Z,74.30
2018-11-14T16:35:37.710Z,74.50
2018-11-14T16:38:06.417Z,74.60
2018-11-14T16:40:35.445Z,75.00
2018-11-14T16:43:05.652Z,75.00
2018-11-14T16:45:34.164Z,75.50
2018-11-14T16:48:02.622Z,75.70
2018-11-14T16:50:31.106Z,76.70
2018-11-14T16:52:59.584Z,75.90
2018-11-14T16:55:28.127Z,76.10
2018-11-14T16:57:57.131Z,76.40
2018-11-14T17:00:30.655Z,76.70
2018-11-14T17:02:59.990Z,76.90
2018-11-14T17:05:29.802Z,77.30
2018-11-14T17:07:58.314Z,78.50
2018-11-14T17:10:27.259Z,79.80
2018-11-14T17:12:57.789Z,80.10
2018-11-14T17:15:27.071Z,80.40
2018-11-14T17:17:55.669Z,80.10
2018-11-14T17:20:30.906Z,80.90
2018-11-14T17:22:59.433Z,81.40
2018-11-14T17:25:27.951Z,81.50
2018-11-14T17:27:56.419Z,81.80
2018-11-14T17:30:26.211Z,81.60
2018-11-14T17:32:54.995Z,81.70
2018-11-14T17:35:23.548Z,81.80
2018-11-14T17:37:51.997Z,81.80
2018-11-14T17:40:22.806Z,81.60
2018-11-14T17:42:52.255Z,82.00
2018-11-14T17:45:22.958Z,82.00
2018-11-14T17:47:51.840Z,81.80
2018-11-14T17:50:29.750Z,82.20
2018-11-14T17:52:58.943Z,82.00
2018-11-14T17:55:27.622Z,82.10
2018-11-14T17:57:56.431Z,82.10
2018-11-14T18:00:27.167Z,82.50
2018-11-14T18:02:55.729Z,82.50
2018-11-14T18:05:28.495Z,82.50
2018-11-14T18:07:57.039Z,82.50
2018-11-14T18:10:26.892Z,82.20
2018-11-14T18:12:56.400Z,82.30
2018-11-14T18:15:24.938Z,82.30
2018-11-14T18:17:54.179Z,82.10
2018-11-14T18:20:24.911Z,82.40
2018-11-14T18:22:54.046Z,82.50
2018-11-14T18:25:22.561Z,82.40
2018-11-14T18:27:51.022Z,82.70
2018-11-14T18:30:24.600Z,82.60
2018-11-14T18:32:53.749Z,82.60
2018-11-14T18:35:23.026Z,82.60
2018-11-14T18:37:52.441Z,82.60
2018-11-14T18:40:22.121Z,83.40
2018-11-14T18:42:50.611Z,82.60
2018-11-14T18:45:23.438Z,82.60
2018-11-14T18:47:52.089Z,82.50
2018-11-14T18:50:21.189Z,82.70
2018-11-14T18:52:50.167Z,82.80
2018-11-14T18:55:19.828Z,82.70
2018-11-14T18:57:48.894Z,82.80
2018-11-14T19:00:19.595Z,82.80
2018-11-14T19:02:48.052Z,82.80
2018-11-14T19:05:17.178Z,82.90
2018-11-14T19:07:45.662Z,83.10
2018-11-14T19:10:15.402Z,83.20
2018-11-14T19:12:44.557Z,83.10
2018-11-14T19:15:15.113Z,83.10
2018-11-14T19:17:43.586Z,83.10
2018-11-14T19:20:13.894Z,83.20
2018-11-14T19:22:42.685Z,83.30
2018-11-14T19:25:12.693Z,83.30
2018-11-14T19:27:41.420Z,83.70
2018-11-14T19:30:13.092Z,83.80
2018-11-14T19:32:41.915Z,84.10
2018-11-14T19:35:11.340Z,83.80
2018-11-14T19:37:40.555Z,83.80
2018-11-14T19:40:12.459Z,83.70
2018-11-14T19:42:41.187Z,83.70
2018-11-14T19:45:12.568Z,83.60
2018-11-14T19:47:41.718Z,83.50
2018-11-14T19:50:12.167Z,83.70
2018-11-14T19:52:40.814Z,83.50
2018-11-14T19:55:10.842Z,83.40
2018-11-14T19:57:39.828Z,83.30
2018-11-14T20:00:11.608Z,83.30
2018-11-14T20:02:40.023Z,83.40
2018-11-14T20:05:09.978Z,83.40
2018-11-14T20:07:38.537Z,83.50
2018-11-14T20:10:11.363Z,83.40
2018-11-14T20:12:39.874Z,83.50
2018-11-14T20:15:16.815Z,83.80
2018-11-14T20:17:45.894Z,83.80
2018-11-14T20:20:16.126Z,83.80
2018-11-14T20:22:45.121Z,83.80
2018-11-14T20:25:13.628Z,83.70
2018-11-14T20:27:42.386Z,83.80
2018-11-14T20:30:13.378Z,83.80
2018-11-14T20:32:41.868Z,83.80
2018-11-14T20:35:11.514Z,83.90
2018-11-14T20:37:40.197Z,83.90
2018-11-14T20:40:10.090Z,83.70
2018-11-14T20:42:38.592Z,83.90
2018-11-14T20:45:09.206Z,84.70
2018-11-14T20:47:37.690Z,83.90
2018-11-14T20:50:09.142Z,83.90
2018-11-14T20:52:37.892Z,84.20
2018-11-14T20:55:07.779Z,84.20
2018-11-14T20:57:36.633Z,84.30
2018-11-14T21:00:08.526Z,84.50
2018-11-14T21:02:36.998Z,84.50
2018-11-14T21:05:07.976Z,84.60
2018-11-14T21:07:36.493Z,84.80
2018-11-14T21:10:07.815Z,84.80
2018-11-14T21:12:36.309Z,84.80
2018-11-14T21:15:06.580Z,84.90
2018-11-14T21:17:35.015Z,85.30
2018-11-14T21:20:05.009Z,85.30
2018-11-14T21:22:33.851Z,85.40
2018-11-14T21:25:02.403Z,85.40
2018-11-14T21:27:30.923Z,85.60
2018-11-14T21:29:59.984Z,85.70
2018-11-14T21:32:28.483Z,85.80
2018-11-14T21:34:57.038Z,86.00
2018-11-14T21:37:25.592Z,86.00
2018-11-14T21:39:54.127Z,86.30
2018-11-14T21:42:22.673Z,86.40
2018-11-14T21:44:51.751Z,86.40
2018-11-14T21:47:32.187Z,86.40
2018-11-14T21:50:00.694Z,86.40
2018-11-14T21:52:29.208Z,86.50
2018-11-14T21:54:57.720Z,86.60
2018-11-14T21:57:26.644Z,86.60
2018-11-14T21:59:55.372Z,87.00
2018-11-14T22:02:24.904Z,86.90
2018-11-14T22:04:53.352Z,86.70
2018-11-14T22:07:21.847Z,86.90
2018-11-14T22:09:50.345Z,86.90
2018-11-14T22:12:18.882Z,87.20
2018-11-14T22:14:47.369Z,87.10
2018-11-14T22:17:15.805Z,87.20
2018-11-14T22:19:44.470Z,87.10
2018-11-14T22:22:12.920Z,87.40
2018-11-14T22:24:41.486Z,87.30
2018-11-14T22:27:10.038Z,87.20
2018-11-14T22:29:38.871Z,87.20
2018-11-14T22:32:07.366Z,87.30
2018-11-14T22:34:35.904Z,87.60
2018-11-14T22:37:04.508Z,87.60
2018-11-14T22:39:32.959Z,87.70
2018-11-14T22:42:01.390Z,87.60
2018-11-14T22:44:29.812Z,87.50
2018-11-14T22:46:58.245Z,87.50
2018-11-14T22:49:26.652Z,87.30
2018-11-14T22:51:55.108Z,87.30
2018-11-14T22:54:23.547Z,87.50
2018-11-14T22:56:51.977Z,87.50
2018-11-14T22:59:20.387Z,87.50
2018-11-14T23:01:49.454Z,87.50
2018-11-14T23:04:18.020Z,87.60
2018-11-14T23:06:46.508Z,87.50
2018-11-14T23:09:14.989Z,87.50
2018-11-14T23:14:24.662Z,87.90
2018-11-14T23:16:53.154Z,87.80
2018-11-14T23:19:21.741Z,87.80
2018-11-14T23:21:50.240Z,87.80
2018-11-14T23:24:18.835Z,88.00
2018-11-14T23:26:47.287Z,88.00
2018-11-14T23:29:15.772Z,88.10
2018-11-14T23:31:44.258Z,89.00
2018-11-14T23:34:12.710Z,88.90
2018-11-14T23:36:41.146Z,88.40
2018-11-14T23:39:12.035Z,88.20
2018-11-14T23:41:40.462Z,88.20
2018-11-14T23:44:09.207Z,88.40
2018-11-14T23:46:37.631Z,88.50
2018-11-14T23:49:06.085Z,88.50
2018-11-14T23:51:34.498Z,88.40
2018-11-14T23:54:03.685Z,88.40
2018-11-14T23:56:32.173Z,88.50
2018-11-14T23:59:00.631Z,88.40
